Weather at Holloman Air Force Base

Public forecast

Using degrees Fahrenheit for public forecast. Weather courtesy of forecast.io.

Current aviation weather report (METAR) for Holloman Air Force Base

Retrieved 2022/01/22 20:58 UTC (39 minutes ago):

KHMN 222058Z AUTO 00000KT 10SM CLR 12/M04 A3018 RMK AO2 SLP210 T01181044 57024

Aviation forecast (TAF) for Holloman Air Force Base

Forecast is more than 12 hours old.

Retrieved 2022-01-22 01:09 UTC (20 hours ago):

TAF KHMN 220100Z 2201/2307 VRB06KT 9999 FEW090 QNH3005INS TX13/2222Z TNM03/2212Z